Time;durP1;ratioP1;P1;durP2;ratioP2;P2;SDS_P1;SDS_P2;PMS_P1;PMS_P2;Temp;Humidity;BMP_temperature;BMP_pressure;BME280_temperature;BME280_humidity;BME280_pressure;Samples;Min_cycle;Max_cycle;Signal;HPM_P1;HPM_P2
2021/03/14 00:00:53;;;;;;;1.00;1.00;;;;;;;;;;5069364;28;20584;-64
2021/03/14 00:03:20;;;;;;;1.58;1.38;;;;;;;;;;5069395;28;20047;-64
2021/03/14 00:05:47;;;;;;;0.82;0.80;;;;;;;;;;5070107;28;20020;-64
2021/03/14 00:08:13;;;;;;;1.80;0.95;;;;;;;;;;5069356;28;20032;-64
2021/03/14 00:10:44;;;;;;;0.95;0.90;;;;;;;;;;5069729;28;20023;-64
2021/03/14 00:13:13;;;;;;;1.17;1.08;;;;;;;;;;5069414;28;20025;-64
2021/03/14 00:15:40;;;;;;;1.05;0.70;;;;;;;;;;5088499;28;20058;-64
2021/03/14 00:18:06;;;;;;;1.52;1.00;;;;;;;;;;5089082;28;20040;-64
2021/03/14 00:20:33;;;;;;;0.65;0.65;;;;;;;;;;5089641;28;20106;-64
2021/03/14 00:22:59;;;;;;;0.75;0.75;;;;;;;;;;5089849;28;20073;-64
2021/03/14 00:25:25;;;;;;;0.85;0.73;;;;;;;;;;5089986;28;20043;-64
2021/03/14 00:27:51;;;;;;;0.50;0.40;;;;;;;;;;5089276;28;20111;-64
2021/03/14 00:30:17;;;;;;;0.73;0.73;;;;;;;;;;5088719;28;20024;-64
2021/03/14 00:32:44;;;;;;;0.50;0.50;;;;;;;;;;5089774;28;20024;-64
2021/03/14 00:35:11;;;;;;;0.82;0.80;;;;;;;;;;5088773;28;20421;-64
2021/03/14 00:37:37;;;;;;;1.80;1.67;;;;;;;;;;5089468;28;20023;-64
2021/03/14 00:40:04;;;;;;;0.98;0.63;;;;;;;;;;5089027;28;20506;-64
2021/03/14 00:42:30;;;;;;;0.47;0.40;;;;;;;;;;5089445;28;20572;-65
2021/03/14 00:44:57;;;;;;;1.52;0.60;;;;;;;;;;5089505;28;20450;-64
2021/03/14 00:47:23;;;;;;;0.73;0.63;;;;;;;;;;5088744;28;20402;-64
2021/03/14 00:49:49;;;;;;;0.80;0.80;;;;;;;;;;5089646;28;20097;-64
2021/03/14 00:52:15;;;;;;;0.50;0.50;;;;;;;;;;5089125;28;20046;-64
2021/03/14 00:54:41;;;;;;;0.65;0.60;;;;;;;;;;5089694;28;20031;-64
2021/03/14 00:57:07;;;;;;;0.63;0.63;;;;;;;;;;5088068;28;20513;-64
2021/03/14 00:59:33;;;;;;;1.23;1.10;;;;;;;;;;5073377;28;20144;-65
2021/03/14 01:01:59;;;;;;;0.55;0.55;;;;;;;;;;5067787;28;20576;-64
2021/03/14 01:04:26;;;;;;;0.85;0.75;;;;;;;;;;5068832;28;20056;-64
2021/03/14 01:06:52;;;;;;;0.80;0.57;;;;;;;;;;5069089;28;20028;-64
2021/03/14 01:09:18;;;;;;;0.98;0.93;;;;;;;;;;5068223;28;20040;-64
2021/03/14 01:11:45;;;;;;;0.95;0.40;;;;;;;;;;5068158;28;20074;-64
2021/03/14 01:14:11;;;;;;;1.20;0.63;;;;;;;;;;5068836;28;20037;-64
2021/03/14 01:16:37;;;;;;;0.77;0.63;;;;;;;;;;5069415;28;20027;-64
2021/03/14 01:19:03;;;;;;;0.65;0.60;;;;;;;;;;5067726;28;20025;-64
2021/03/14 01:21:29;;;;;;;0.65;0.45;;;;;;;;;;5068052;28;20047;-64
2021/03/14 01:23:55;;;;;;;0.88;0.88;;;;;;;;;;5069091;28;20032;-64
2021/03/14 01:26:21;;;;;;;1.15;0.60;;;;;;;;;;5068417;28;20040;-64
2021/03/14 01:28:49;;;;;;;0.40;0.40;;;;;;;;;;5067291;28;20203;-65
2021/03/14 01:31:15;;;;;;;0.40;0.40;;;;;;;;;;5067620;28;20219;-64
2021/03/14 01:33:41;;;;;;;0.57;0.57;;;;;;;;;;5069084;28;20023;-64
2021/03/14 01:36:07;;;;;;;1.30;0.43;;;;;;;;;;5067832;28;20032;-64
2021/03/14 01:38:34;;;;;;;0.75;0.57;;;;;;;;;;5084292;28;20027;-64
2021/03/14 01:41:00;;;;;;;0.65;0.65;;;;;;;;;;5087322;28;20036;-64
2021/03/14 01:43:29;;;;;;;1.13;0.80;;;;;;;;;;5087811;28;20020;-64
2021/03/14 01:45:55;;;;;;;0.65;0.63;;;;;;;;;;5088616;28;20494;-64
2021/03/14 01:48:23;;;;;;;0.52;0.50;;;;;;;;;;5087012;28;20028;-64
2021/03/14 01:50:49;;;;;;;0.82;0.82;;;;;;;;;;5088389;28;20063;-64
2021/03/14 01:53:15;;;;;;;0.80;0.50;;;;;;;;;;5088710;28;20257;-64
2021/03/14 01:55:41;;;;;;;0.93;0.63;;;;;;;;;;5088743;28;20051;-64
2021/03/14 01:58:08;;;;;;;0.40;0.40;;;;;;;;;;5086461;28;20094;-64
2021/03/14 02:00:35;;;;;;;0.70;0.70;;;;;;;;;;5087384;28;20498;-64
2021/03/14 02:03:01;;;;;;;0.93;0.60;;;;;;;;;;5087936;28;20024;-64
2021/03/14 02:05:27;;;;;;;0.50;0.50;;;;;;;;;;5087874;28;20016;-64
2021/03/14 02:07:54;;;;;;;1.67;0.80;;;;;;;;;;5087812;28;20161;-64
2021/03/14 02:10:22;;;;;;;0.70;0.50;;;;;;;;;;5086625;28;20032;-63
2021/03/14 02:12:52;;;;;;;0.40;0.40;;;;;;;;;;5087119;28;20039;-63
2021/03/14 02:15:18;;;;;;;1.33;1.23;;;;;;;;;;5072802;28;20021;-64
2021/03/14 02:17:46;;;;;;;0.68;0.50;;;;;;;;;;5068159;28;20040;-64
2021/03/14 02:20:13;;;;;;;1.40;0.52;;;;;;;;;;5066665;28;20034;-64
2021/03/14 02:22:43;;;;;;;0.55;0.52;;;;;;;;;;5067949;28;20028;-64
2021/03/14 02:25:22;;;;;;;0.60;0.50;;;;;;;;;;5067574;28;20032;-64
2021/03/14 02:27:49;;;;;;;0.75;0.47;;;;;;;;;;5065886;28;20032;-64
2021/03/14 02:30:16;;;;;;;0.30;0.30;;;;;;;;;;5066507;28;20024;-64
2021/03/14 02:32:42;;;;;;;0.43;0.40;;;;;;;;;;5067471;28;20090;-64
2021/03/14 02:35:09;;;;;;;0.82;0.60;;;;;;;;;;5067760;28;20467;-64
2021/03/14 02:37:37;;;;;;;0.63;0.50;;;;;;;;;;5066847;28;20037;-64
2021/03/14 02:40:04;;;;;;;0.75;0.75;;;;;;;;;;5067172;28;20043;-64
2021/03/14 02:42:30;;;;;;;1.42;0.80;;;;;;;;;;5066993;28;20403;-64
2021/03/14 02:44:57;;;;;;;0.43;0.32;;;;;;;;;;5067779;28;20024;-64
2021/03/14 02:47:24;;;;;;;0.70;0.70;;;;;;;;;;5067133;28;20128;-64
2021/03/14 02:49:51;;;;;;;0.32;0.30;;;;;;;;;;5067390;28;20032;-64
2021/03/14 02:52:18;;;;;;;0.70;0.70;;;;;;;;;;5066969;28;20487;-64
2021/03/14 02:54:46;;;;;;;1.23;0.80;;;;;;;;;;5071908;28;20033;-64
2021/03/14 02:57:12;;;;;;;0.82;0.65;;;;;;;;;;5070519;28;20030;-64
2021/03/14 02:59:40;;;;;;;0.50;0.50;;;;;;;;;;5085316;28;20438;-64
2021/03/14 03:02:06;;;;;;;0.43;0.43;;;;;;;;;;5091180;28;20398;-64
2021/03/14 03:04:32;;;;;;;1.85;0.55;;;;;;;;;;5090894;28;20040;-64
2021/03/14 03:06:59;;;;;;;0.68;0.68;;;;;;;;;;5091886;28;20031;-64
2021/03/14 03:09:25;;;;;;;0.77;0.77;;;;;;;;;;5090829;28;20134;-64
2021/03/14 03:11:52;;;;;;;0.40;0.40;;;;;;;;;;5091317;28;20398;-64
2021/03/14 03:14:19;;;;;;;1.25;0.40;;;;;;;;;;5090857;28;20086;-64
2021/03/14 03:16:47;;;;;;;0.32;0.32;;;;;;;;;;5091805;28;20024;-64
2021/03/14 03:19:15;;;;;;;0.88;0.73;;;;;;;;;;5090185;28;20399;-64
2021/03/14 03:21:41;;;;;;;0.47;0.40;;;;;;;;;;5091572;28;20020;-64
2021/03/14 03:24:08;;;;;;;0.75;0.68;;;;;;;;;;5089887;28;20024;-64
2021/03/14 03:26:37;;;;;;;0.82;0.50;;;;;;;;;;5091356;28;20107;-64
2021/03/14 03:29:03;;;;;;;0.20;0.20;;;;;;;;;;5089553;28;20024;-64
2021/03/14 03:31:29;;;;;;;0.55;0.55;;;;;;;;;;5090779;28;20016;-64
2021/03/14 03:33:55;;;;;;;0.75;0.38;;;;;;;;;;5090570;28;20083;-64
2021/03/14 03:36:21;;;;;;;0.30;0.30;;;;;;;;;;5090779;28;20040;-64
2021/03/14 03:38:47;;;;;;;1.17;0.28;;;;;;;;;;5072829;28;20027;-64
2021/03/14 03:41:14;;;;;;;0.40;0.40;;;;;;;;;;5068920;28;20085;-64
2021/03/14 03:43:41;;;;;;;1.30;0.30;;;;;;;;;;5071174;28;20050;-64
2021/03/14 03:46:09;;;;;;;1.15;0.77;;;;;;;;;;5069488;28;20021;-64
2021/03/14 03:48:56;;;;;;;0.70;0.70;;;;;;;;;;5070761;28;20546;-64
2021/03/14 03:51:26;;;;;;;0.52;0.52;;;;;;;;;;5069536;28;20039;-64
2021/03/14 03:53:53;;;;;;;0.88;0.50;;;;;;;;;;5070701;28;20431;-64
2021/03/14 03:56:20;;;;;;;2.25;0.65;;;;;;;;;;5069887;28;20029;-64
2021/03/14 03:58:46;;;;;;;1.08;0.73;;;;;;;;;;5068980;28;20139;-64
2021/03/14 04:01:13;;;;;;;0.57;0.57;;;;;;;;;;5069242;28;20392;-64
2021/03/14 04:03:40;;;;;;;0.73;0.60;;;;;;;;;;5070171;28;20028;-64
2021/03/14 04:06:07;;;;;;;0.50;0.30;;;;;;;;;;5068647;28;20107;-64
2021/03/14 04:08:34;;;;;;;0.77;0.70;;;;;;;;;;5070618;28;20379;-64
2021/03/14 04:11:01;;;;;;;1.15;1.05;;;;;;;;;;5069579;28;20024;-64
2021/03/14 04:13:28;;;;;;;0.45;0.38;;;;;;;;;;5069725;28;20437;-64
2021/03/14 04:15:54;;;;;;;0.93;0.75;;;;;;;;;;5090375;28;20032;-64
2021/03/14 04:18:20;;;;;;;0.43;0.43;;;;;;;;;;5089329;28;20039;-64
2021/03/14 04:20:48;;;;;;;0.50;0.40;;;;;;;;;;5089763;28;20533;-64
2021/03/14 04:23:16;;;;;;;0.82;0.43;;;;;;;;;;5089583;28;20028;-64
2021/03/14 04:25:43;;;;;;;0.70;0.32;;;;;;;;;;5089741;28;20035;-64
2021/03/14 04:28:10;;;;;;;0.98;0.30;;;;;;;;;;5088043;28;20056;-64
2021/03/14 04:30:36;;;;;;;0.95;0.50;;;;;;;;;;5089283;28;20032;-64
2021/03/14 04:33:02;;;;;;;0.90;0.50;;;;;;;;;;5089416;28;20024;-63
2021/03/14 04:35:29;;;;;;;0.57;0.50;;;;;;;;;;5088892;28;20036;-64
2021/03/14 04:37:55;;;;;;;0.75;0.60;;;;;;;;;;5089313;28;20028;-64
2021/03/14 04:40:22;;;;;;;0.20;0.20;;;;;;;;;;5088322;28;20131;-64
2021/03/14 04:42:49;;;;;;;0.30;0.30;;;;;;;;;;5089810;28;20402;-64
2021/03/14 04:45:15;;;;;;;0.40;0.40;;;;;;;;;;5088777;28;20092;-64
2021/03/14 04:47:45;;;;;;;0.40;0.40;;;;;;;;;;5089081;28;20548;-64
2021/03/14 04:50:12;;;;;;;0.47;0.40;;;;;;;;;;5089135;28;20051;-64
2021/03/14 04:52:39;;;;;;;1.50;0.38;;;;;;;;;;5089449;28;20113;-64
2021/03/14 04:55:06;;;;;;;0.20;0.20;;;;;;;;;;5089521;28;20024;-64
2021/03/14 04:57:33;;;;;;;0.75;0.70;;;;;;;;;;5087921;28;20107;-64
2021/03/14 05:00:00;;;;;;;0.90;0.30;;;;;;;;;;5070332;28;20037;-64
2021/03/14 05:02:28;;;;;;;0.68;0.43;;;;;;;;;;5068939;28;20068;-64
2021/03/14 05:04:55;;;;;;;0.65;0.35;;;;;;;;;;5068432;28;20036;-64
2021/03/14 05:07:22;;;;;;;0.75;0.57;;;;;;;;;;5067998;28;20059;-64
2021/03/14 05:09:48;;;;;;;0.90;0.55;;;;;;;;;;5068710;28;20025;-64
2021/03/14 05:12:15;;;;;;;0.28;0.28;;;;;;;;;;5068189;28;20039;-64
2021/03/14 05:14:42;;;;;;;0.30;0.30;;;;;;;;;;5068621;28;20028;-64
2021/03/14 05:17:08;;;;;;;0.30;0.28;;;;;;;;;;5067455;28;20055;-64
2021/03/14 05:19:35;;;;;;;0.28;0.28;;;;;;;;;;5068723;28;20116;-64
2021/03/14 05:22:02;;;;;;;1.10;0.40;;;;;;;;;;5068044;28;20025;-64
2021/03/14 05:24:29;;;;;;;0.57;0.25;;;;;;;;;;5068796;28;20360;-64
2021/03/14 05:26:57;;;;;;;0.40;0.40;;;;;;;;;;5068545;28;20020;-64
2021/03/14 05:29:24;;;;;;;0.30;0.30;;;;;;;;;;5066192;28;20036;-64
2021/03/14 05:31:50;;;;;;;0.57;0.30;;;;;;;;;;5068501;28;20071;-64
2021/03/14 05:34:18;;;;;;;0.20;0.20;;;;;;;;;;5067219;28;20064;-64
2021/03/14 05:36:45;;;;;;;0.65;0.20;;;;;;;;;;5068872;28;20025;-64
2021/03/14 05:39:12;;;;;;;0.30;0.30;;;;;;;;;;5086082;28;20410;-64
2021/03/14 05:41:39;;;;;;;0.50;0.30;;;;;;;;;;5087496;28;20071;-64
2021/03/14 05:44:05;;;;;;;0.35;0.28;;;;;;;;;;5087879;28;20027;-64
2021/03/14 05:46:31;;;;;;;0.32;0.22;;;;;;;;;;5089127;28;20390;-64
2021/03/14 05:48:58;;;;;;;0.15;0.15;;;;;;;;;;5087797;28;20421;-64
2021/03/14 05:51:28;;;;;;;0.20;0.20;;;;;;;;;;5087673;28;20032;-64
2021/03/14 05:53:56;;;;;;;0.20;0.20;;;;;;;;;;5088722;28;20053;-64
2021/03/14 05:56:22;;;;;;;0.20;0.20;;;;;;;;;;5087592;28;20122;-64
2021/03/14 05:58:50;;;;;;;0.30;0.30;;;;;;;;;;5086411;28;20518;-64
2021/03/14 06:01:17;;;;;;;0.20;0.20;;;;;;;;;;5086946;28;20510;-64
2021/03/14 06:03:44;;;;;;;0.75;0.40;;;;;;;;;;5087798;28;20073;-64
2021/03/14 06:06:16;;;;;;;0.10;0.10;;;;;;;;;;5087942;28;20035;-64
2021/03/14 06:08:43;;;;;;;0.90;0.43;;;;;;;;;;5088167;28;20474;-64
2021/03/14 06:11:11;;;;;;;0.38;0.30;;;;;;;;;;5085036;28;20035;-64
2021/03/14 06:13:37;;;;;;;0.82;0.68;;;;;;;;;;5087607;28;20178;-64
2021/03/14 06:16:03;;;;;;;0.20;0.20;;;;;;;;;;5067156;28;20024;-64
2021/03/14 06:18:29;;;;;;;0.90;0.40;;;;;;;;;;5068134;28;20120;-64
2021/03/14 06:20:55;;;;;;;0.60;0.32;;;;;;;;;;5067351;28;20041;-64
2021/03/14 06:23:22;;;;;;;0.28;0.25;;;;;;;;;;5067607;28;20499;-64
2021/03/14 06:25:50;;;;;;;0.20;0.17;;;;;;;;;;5068031;28;20513;-64
2021/03/14 06:28:16;;;;;;;0.38;0.38;;;;;;;;;;5068166;28;20029;-64
2021/03/14 06:30:43;;;;;;;0.20;0.20;;;;;;;;;;5070741;28;20032;-64
2021/03/14 06:33:13;;;;;;;0.35;0.20;;;;;;;;;;5071644;28;20032;-64
2021/03/14 06:35:52;;;;;;;0.20;0.20;;;;;;;;;;5071717;28;20031;-64
2021/03/14 06:38:24;;;;;;;0.25;0.20;;;;;;;;;;5071330;28;20044;-64
2021/03/14 06:41:05;;;;;;;0.32;0.10;;;;;;;;;;5071186;28;20055;-64
2021/03/14 06:43:31;;;;;;;0.40;0.32;;;;;;;;;;5071827;28;20541;-64
2021/03/14 06:45:59;;;;;;;0.43;0.17;;;;;;;;;;5071904;28;20194;-64
2021/03/14 06:48:28;;;;;;;0.22;0.22;;;;;;;;;;5071256;28;20056;-64
2021/03/14 06:50:55;;;;;;;0.10;0.10;;;;;;;;;;5071259;28;20111;-64
2021/03/14 06:53:25;;;;;;;0.10;0.10;;;;;;;;;;5071447;28;20036;-64
2021/03/14 06:55:52;;;;;;;0.15;0.15;;;;;;;;;;5071408;28;20017;-64
2021/03/14 06:58:18;;;;;;;0.20;0.20;;;;;;;;;;5073576;28;20044;-64
2021/03/14 07:01:03;;;;;;;0.20;0.20;;;;;;;;;;5090678;28;20028;-64
2021/03/14 07:03:29;;;;;;;0.32;0.30;;;;;;;;;;5091872;28;20068;-64
2021/03/14 07:06:13;;;;;;;0.30;0.20;;;;;;;;;;5091716;28;20080;-64
2021/03/14 07:08:39;;;;;;;0.38;0.30;;;;;;;;;;5091768;28;20027;-64
2021/03/14 07:11:05;;;;;;;0.63;0.40;;;;;;;;;;5090174;28;20047;-64
2021/03/14 07:13:31;;;;;;;0.10;0.10;;;;;;;;;;5091426;28;20158;-64
2021/03/14 07:15:58;;;;;;;0.32;0.20;;;;;;;;;;5091448;28;20032;-64
2021/03/14 07:18:25;;;;;;;0.20;0.20;;;;;;;;;;5090367;28;20036;-64
2021/03/14 07:20:51;;;;;;;0.40;0.40;;;;;;;;;;5090535;28;20036;-64
2021/03/14 07:23:17;;;;;;;0.47;0.30;;;;;;;;;;5090849;28;20040;-64
2021/03/14 07:25:46;;;;;;;0.25;0.25;;;;;;;;;;5091255;28;20032;-64
2021/03/14 07:28:13;;;;;;;0.50;0.50;;;;;;;;;;5089396;28;20418;-64
2021/03/14 07:30:39;;;;;;;0.47;0.25;;;;;;;;;;5090421;28;20438;-64
2021/03/14 07:33:06;;;;;;;0.20;0.20;;;;;;;;;;5089885;28;20130;-64
2021/03/14 07:35:32;;;;;;;0.65;0.20;;;;;;;;;;5090739;28;20078;-64
2021/03/14 07:37:59;;;;;;;0.20;0.20;;;;;;;;;;5080073;28;20143;-64
2021/03/14 07:40:26;;;;;;;0.93;0.57;;;;;;;;;;5068500;28;20109;-64
2021/03/14 07:43:00;;;;;;;0.10;0.10;;;;;;;;;;5070580;28;20086;-65
2021/03/14 07:45:27;;;;;;;0.30;0.30;;;;;;;;;;5069680;28;20048;-64
2021/03/14 07:47:53;;;;;;;0.25;0.20;;;;;;;;;;5070343;28;20035;-64
2021/03/14 07:50:23;;;;;;;0.20;0.20;;;;;;;;;;5069262;28;20029;-64
2021/03/14 07:52:50;;;;;;;0.40;0.28;;;;;;;;;;5070354;28;20029;-64
2021/03/14 07:55:20;;;;;;;0.40;0.28;;;;;;;;;;5069687;28;20025;-64
2021/03/14 07:57:47;;;;;;;0.82;0.28;;;;;;;;;;5068878;28;20542;-64
2021/03/14 08:00:26;;;;;;;0.30;0.22;;;;;;;;;;5068097;28;20056;-64
2021/03/14 08:02:53;;;;;;;0.20;0.20;;;;;;;;;;5070385;28;20020;-64
2021/03/14 08:05:19;;;;;;;0.17;0.17;;;;;;;;;;5069539;28;20111;-64
2021/03/14 08:07:46;;;;;;;0.43;0.22;;;;;;;;;;5069864;28;20114;-64
2021/03/14 08:10:31;;;;;;;0.20;0.20;;;;;;;;;;5069059;28;20032;-64
2021/03/14 08:12:58;;;;;;;0.30;0.30;;;;;;;;;;5070150;28;20040;-65
2021/03/14 08:15:26;;;;;;;0.20;0.20;;;;;;;;;;5085274;28;20482;-64
2021/03/14 08:17:55;;;;;;;0.45;0.30;;;;;;;;;;5090283;28;20049;-65
2021/03/14 08:20:36;;;;;;;0.43;0.25;;;;;;;;;;5088337;28;20403;-64
2021/03/14 08:23:02;;;;;;;0.35;0.30;;;;;;;;;;5089922;28;20028;-64
2021/03/14 08:25:30;;;;;;;0.98;0.22;;;;;;;;;;5090245;28;20024;-64
2021/03/14 08:28:00;;;;;;;0.35;0.35;;;;;;;;;;5088743;28;20651;-64
2021/03/14 08:30:32;;;;;;;1.10;0.30;;;;;;;;;;5089422;28;20055;-64
2021/03/14 08:33:17;;;;;;;0.57;0.50;;;;;;;;;;5089594;28;20150;-64
2021/03/14 08:35:47;;;;;;;0.38;0.38;;;;;;;;;;5090074;28;20020;-64
2021/03/14 08:38:45;;;;;;;0.45;0.45;;;;;;;;;;5088637;28;20494;-64
2021/03/14 08:41:17;;;;;;;0.43;0.40;;;;;;;;;;5086929;28;20047;-64
2021/03/14 08:43:43;;;;;;;1.52;0.40;;;;;;;;;;5089594;28;20058;-64
2021/03/14 08:46:10;;;;;;;0.60;0.50;;;;;;;;;;5089126;28;20457;-64
2021/03/14 08:48:36;;;;;;;0.98;0.40;;;;;;;;;;5088732;28;20023;-64
2021/03/14 08:51:04;;;;;;;0.40;0.30;;;;;;;;;;5088004;28;20519;-64
2021/03/14 08:53:30;;;;;;;0.30;0.30;;;;;;;;;;5089926;28;20035;-64
2021/03/14 08:55:57;;;;;;;1.10;0.40;;;;;;;;;;5089651;28;20032;-64
2021/03/14 08:58:23;;;;;;;0.32;0.32;;;;;;;;;;5082338;28;20044;-64
2021/03/14 09:01:08;;;;;;;0.60;0.22;;;;;;;;;;5065717;28;20032;-64
2021/03/14 09:03:43;;;;;;;0.35;0.35;;;;;;;;;;5067471;28;20039;-63
2021/03/14 09:06:15;;;;;;;0.70;0.50;;;;;;;;;;5068139;28;20267;-63
2021/03/14 09:08:55;;;;;;;1.73;0.50;;;;;;;;;;5067512;28;20028;-64
2021/03/14 09:11:39;;;;;;;1.35;1.17;;;;;;;;;;5066981;28;20400;-63
2021/03/14 09:14:38;;;;;;;1.05;0.47;;;;;;;;;;5067607;28;20498;-64
2021/03/14 09:17:05;;;;;;;0.60;0.50;;;;;;;;;;5065878;28;20086;-64
2021/03/14 09:19:31;;;;;;;0.65;0.35;;;;;;;;;;5067545;28;20029;-64
2021/03/14 09:21:59;;;;;;;0.85;0.50;;;;;;;;;;5067259;28;20031;-64
2021/03/14 09:24:32;;;;;;;0.65;0.55;;;;;;;;;;5067194;28;20087;-64
2021/03/14 09:27:00;;;;;;;1.10;0.85;;;;;;;;;;5067759;28;20100;-64
2021/03/14 09:29:32;;;;;;;1.60;0.85;;;;;;;;;;5066291;28;20032;-64
2021/03/14 09:31:58;;;;;;;0.52;0.50;;;;;;;;;;5066793;28;20021;-64
2021/03/14 09:34:27;;;;;;;0.88;0.38;;;;;;;;;;5066874;28;20024;-64
2021/03/14 09:36:53;;;;;;;0.47;0.47;;;;;;;;;;5068607;28;20033;-64
2021/03/14 09:39:23;;;;;;;1.27;0.55;;;;;;;;;;5086223;28;20139;-64
2021/03/14 09:41:49;;;;;;;1.63;1.08;;;;;;;;;;5086636;28;20115;-64
2021/03/14 09:44:19;;;;;;;3.25;0.98;;;;;;;;;;5087582;28;20388;-64
2021/03/14 09:47:01;;;;;;;1.10;0.70;;;;;;;;;;5088571;28;20032;-64
2021/03/14 09:49:29;;;;;;;0.98;0.60;;;;;;;;;;5087272;28;20403;-64
2021/03/14 09:51:55;;;;;;;1.45;0.70;;;;;;;;;;5087634;28;20494;-64
2021/03/14 09:54:22;;;;;;;0.50;0.50;;;;;;;;;;5088022;28;20114;-64
2021/03/14 09:56:52;;;;;;;1.05;0.95;;;;;;;;;;5088359;28;20024;-64
2021/03/14 09:59:36;;;;;;;0.60;0.50;;;;;;;;;;5085897;28;20047;-64
2021/03/14 10:02:02;;;;;;;;;;;;;;;;;;5087212;28;20526;-64
2021/03/14 10:04:28;;;;;;;2.00;0.88;;;;;;;;;;5087696;28;19908;-65
2021/03/14 10:06:54;;;;;;;1.33;0.60;;;;;;;;;;5088373;28;20032;-64
2021/03/14 10:09:24;;;;;;;0.93;0.57;;;;;;;;;;5087551;28;20034;-64
2021/03/14 10:11:54;;;;;;;1.00;0.60;;;;;;;;;;5087603;28;20052;-64
2021/03/14 10:14:21;;;;;;;0.60;0.60;;;;;;;;;;5080856;28;20378;-64
2021/03/14 10:16:50;;;;;;;1.77;0.82;;;;;;;;;;5067853;28;20028;-64
2021/03/14 10:19:17;;;;;;;1.33;0.98;;;;;;;;;;5067052;28;20032;-64
2021/03/14 10:21:45;;;;;;;1.13;0.50;;;;;;;;;;5067339;28;20564;-64
2021/03/14 10:24:20;;;;;;;1.33;0.77;;;;;;;;;;5067148;28;20533;-64
2021/03/14 10:26:52;;;;;;;0.43;0.43;;;;;;;;;;5068107;28;20519;-64
2021/03/14 10:29:18;;;;;;;2.25;1.00;;;;;;;;;;5066217;28;20624;-64
2021/03/14 10:31:44;;;;;;;0.40;0.40;;;;;;;;;;5066946;28;20066;-64
2021/03/14 10:34:10;;;;;;;0.90;0.70;;;;;;;;;;5067322;28;20030;-64
2021/03/14 10:36:37;;;;;;;0.50;0.50;;;;;;;;;;5067908;28;20032;-65
2021/03/14 10:39:05;;;;;;;1.08;0.57;;;;;;;;;;5066823;28;20461;-64
2021/03/14 10:41:39;;;;;;;1.60;0.73;;;;;;;;;;5066798;28;20045;-64
2021/03/14 10:44:05;;;;;;;0.82;0.40;;;;;;;;;;5067340;28;20033;-64
2021/03/14 10:46:41;;;;;;;0.73;0.60;;;;;;;;;;5067759;28;20461;-64
2021/03/14 10:49:12;;;;;;;1.35;0.80;;;;;;;;;;5066363;28;20024;-64
2021/03/14 10:51:39;;;;;;;0.45;0.30;;;;;;;;;;5066498;28;20546;-64
2021/03/14 10:54:09;;;;;;;0.73;0.52;;;;;;;;;;5067153;28;20132;-64
2021/03/14 10:56:38;;;;;;;0.63;0.43;;;;;;;;;;5067382;28;20032;-64
2021/03/14 10:59:04;;;;;;;2.47;1.60;;;;;;;;;;5075713;28;20515;-64
2021/03/14 11:01:36;;;;;;;1.92;0.75;;;;;;;;;;5087317;28;20032;-64
2021/03/14 11:04:06;;;;;;;2.10;0.70;;;;;;;;;;5087263;28;20032;-64
2021/03/14 11:06:32;;;;;;;0.70;0.50;;;;;;;;;;5087503;28;20442;-64
2021/03/14 11:09:02;;;;;;;0.75;0.75;;;;;;;;;;5087216;28;20441;-64
2021/03/14 11:11:37;;;;;;;1.02;0.50;;;;;;;;;;5087132;28;20032;-64
2021/03/14 11:14:36;;;;;;;1.83;0.73;;;;;;;;;;5089269;28;20020;-64
2021/03/14 11:17:15;;;;;;;0.60;0.60;;;;;;;;;;5089127;28;20487;-63
2021/03/14 11:19:43;;;;;;;1.20;0.50;;;;;;;;;;5090970;28;20474;-64
2021/03/14 11:22:09;;;;;;;0.70;0.60;;;;;;;;;;5090757;28;20033;-64
2021/03/14 11:24:35;;;;;;;1.50;0.57;;;;;;;;;;5091387;28;20081;-64
2021/03/14 11:27:01;;;;;;;3.35;0.75;;;;;;;;;;5090483;28;20053;-64
2021/03/14 11:29:28;;;;;;;1.30;1.08;;;;;;;;;;5089902;28;20106;-64
2021/03/14 11:31:54;;;;;;;0.85;0.73;;;;;;;;;;5090821;28;20024;-64
2021/03/14 11:34:20;;;;;;;0.73;0.73;;;;;;;;;;5090200;28;20070;-64
2021/03/14 11:36:47;;;;;;;1.30;1.20;;;;;;;;;;5090720;28;20033;-65
2021/03/14 11:39:13;;;;;;;0.82;0.82;;;;;;;;;;5068951;28;20103;-64
2021/03/14 11:41:39;;;;;;;0.68;0.45;;;;;;;;;;5069793;28;20063;-64
2021/03/14 11:44:06;;;;;;;1.25;1.15;;;;;;;;;;5069728;28;20021;-64
2021/03/14 11:46:32;;;;;;;0.70;0.55;;;;;;;;;;5071369;28;20434;-64
2021/03/14 11:48:58;;;;;;;1.40;1.02;;;;;;;;;;5069455;28;20071;-64
2021/03/14 11:51:24;;;;;;;0.68;0.60;;;;;;;;;;5068977;28;20055;-64
2021/03/14 11:53:51;;;;;;;0.82;0.60;;;;;;;;;;5070505;28;20471;-64
2021/03/14 11:56:17;;;;;;;0.60;0.60;;;;;;;;;;5069527;28;20040;-64
2021/03/14 11:58:43;;;;;;;1.73;1.17;;;;;;;;;;5068504;28;20106;-64
2021/03/14 12:01:09;;;;;;;0.35;0.35;;;;;;;;;;5068650;28;20036;-64
2021/03/14 12:03:35;;;;;;;0.82;0.68;;;;;;;;;;5070313;28;20029;-63
2021/03/14 12:06:02;;;;;;;0.55;0.40;;;;;;;;;;5069752;28;20028;-63
2021/03/14 12:08:28;;;;;;;0.55;0.40;;;;;;;;;;5069889;28;20047;-63
2021/03/14 12:10:54;;;;;;;0.73;0.70;;;;;;;;;;5069750;28;20032;-63
2021/03/14 12:13:20;;;;;;;1.58;0.98;;;;;;;;;;5069224;28;20528;-63
2021/03/14 12:15:46;;;;;;;0.47;0.47;;;;;;;;;;5088369;28;20031;-63
2021/03/14 12:18:12;;;;;;;0.52;0.52;;;;;;;;;;5089583;28;20062;-63
2021/03/14 12:20:38;;;;;;;0.65;0.45;;;;;;;;;;5088832;28;20028;-63
2021/03/14 12:23:05;;;;;;;2.35;0.70;;;;;;;;;;5089450;28;20032;-63
2021/03/14 12:25:31;;;;;;;0.57;0.57;;;;;;;;;;5090021;28;20450;-64
2021/03/14 12:27:57;;;;;;;1.48;0.50;;;;;;;;;;5089241;28;20421;-64
2021/03/14 12:30:23;;;;;;;1.02;1.00;;;;;;;;;;5088583;28;20595;-64
2021/03/14 12:32:49;;;;;;;1.15;0.60;;;;;;;;;;5089907;28;20038;-64
2021/03/14 12:35:15;;;;;;;0.93;0.40;;;;;;;;;;5089350;28;20032;-64
2021/03/14 12:37:42;;;;;;;1.15;0.50;;;;;;;;;;5090034;28;20024;-64
2021/03/14 12:40:09;;;;;;;0.73;0.43;;;;;;;;;;5088010;28;20030;-64
2021/03/14 12:42:35;;;;;;;1.80;1.05;;;;;;;;;;5089062;28;20036;-64
2021/03/14 12:45:01;;;;;;;0.80;0.80;;;;;;;;;;5089201;28;20081;-64
2021/03/14 12:47:27;;;;;;;0.82;0.50;;;;;;;;;;5089229;28;20035;-64
2021/03/14 12:49:56;;;;;;;0.20;0.20;;;;;;;;;;5089135;28;20486;-64
2021/03/14 12:52:22;;;;;;;0.55;0.55;;;;;;;;;;5087651;28;20220;-63
2021/03/14 12:54:48;;;;;;;1.08;0.70;;;;;;;;;;5089630;28;20104;-64
2021/03/14 12:57:14;;;;;;;0.77;0.77;;;;;;;;;;5087509;28;20514;-64
2021/03/14 12:59:40;;;;;;;0.40;0.40;;;;;;;;;;5072369;28;20047;-64
2021/03/14 13:02:07;;;;;;;0.50;0.32;;;;;;;;;;5067968;28;20114;-63
2021/03/14 13:04:33;;;;;;;0.47;0.47;;;;;;;;;;5068596;28;20039;-64
2021/03/14 13:06:59;;;;;;;1.88;0.70;;;;;;;;;;5068523;28;20039;-63
2021/03/14 13:09:25;;;;;;;0.50;0.28;;;;;;;;;;5067980;28;20033;-64
2021/03/14 13:11:54;;;;;;;0.95;0.50;;;;;;;;;;5067768;28;20017;-64
2021/03/14 13:14:20;;;;;;;0.50;0.50;;;;;;;;;;5067895;28;20036;-64
2021/03/14 13:16:48;;;;;;;1.25;0.60;;;;;;;;;;5068831;28;20036;-64
2021/03/14 13:19:14;;;;;;;0.80;0.50;;;;;;;;;;5067981;28;20506;-64
2021/03/14 13:21:40;;;;;;;0.90;0.60;;;;;;;;;;5067457;28;20047;-66
2021/03/14 13:24:06;;;;;;;1.95;0.85;;;;;;;;;;5067504;28;20043;-64
2021/03/14 13:26:32;;;;;;;2.53;1.13;;;;;;;;;;5068335;28;20036;-64
2021/03/14 13:28:58;;;;;;;0.43;0.40;;;;;;;;;;5067294;28;20075;-64
2021/03/14 13:31:24;;;;;;;0.50;0.50;;;;;;;;;;5067487;28;20376;-64
2021/03/14 13:33:50;;;;;;;0.50;0.40;;;;;;;;;;5067532;28;20027;-64
2021/03/14 13:36:16;;;;;;;1.17;0.40;;;;;;;;;;5067771;28;20117;-64
2021/03/14 13:38:43;;;;;;;0.95;0.40;;;;;;;;;;5083981;28;20024;-64
2021/03/14 13:41:10;;;;;;;1.52;1.17;;;;;;;;;;5086902;28;20044;-64
2021/03/14 13:43:36;;;;;;;0.82;0.50;;;;;;;;;;5087968;28;20028;-64
2021/03/14 13:46:04;;;;;;;0.52;0.50;;;;;;;;;;5087889;28;20024;-64
2021/03/14 13:48:30;;;;;;;0.80;0.60;;;;;;;;;;5088318;28;20040;-64
2021/03/14 13:50:56;;;;;;;1.73;1.00;;;;;;;;;;5087915;28;20054;-64
2021/03/14 13:53:22;;;;;;;1.08;0.30;;;;;;;;;;5086971;28;20028;-65
2021/03/14 13:55:48;;;;;;;0.30;0.30;;;;;;;;;;5087979;28;20024;-64
2021/03/14 13:58:15;;;;;;;0.85;0.50;;;;;;;;;;5085713;28;20457;-64
2021/03/14 14:00:41;;;;;;;0.60;0.60;;;;;;;;;;5087018;28;20048;-64
2021/03/14 14:03:07;;;;;;;0.93;0.40;;;;;;;;;;5087027;28;20461;-64
2021/03/14 14:05:33;;;;;;;1.05;0.70;;;;;;;;;;5087760;28;20032;-64
2021/03/14 14:07:59;;;;;;;1.35;0.55;;;;;;;;;;5087425;28;20032;-64
2021/03/14 14:10:26;;;;;;;0.50;0.50;;;;;;;;;;5086854;28;20084;-64
2021/03/14 14:12:53;;;;;;;1.00;0.57;;;;;;;;;;5087674;28;20028;-64
2021/03/14 14:15:19;;;;;;;0.40;0.40;;;;;;;;;;5072342;28;20051;-64
2021/03/14 14:17:45;;;;;;;2.38;0.60;;;;;;;;;;5067636;28;20329;-64
2021/03/14 14:20:12;;;;;;;0.22;0.22;;;;;;;;;;5067045;28;20463;-64
2021/03/14 14:22:38;;;;;;;1.20;0.70;;;;;;;;;;5067397;28;20051;-64
2021/03/14 14:25:05;;;;;;;0.40;0.30;;;;;;;;;;5067375;28;20028;-64
2021/03/14 14:27:32;;;;;;;0.57;0.57;;;;;;;;;;5066896;28;20558;-64
2021/03/14 14:29:59;;;;;;;1.60;0.45;;;;;;;;;;5067017;28;20499;-64
2021/03/14 14:32:25;;;;;;;2.10;0.60;;;;;;;;;;5065692;28;20430;-64
2021/03/14 14:34:52;;;;;;;1.65;0.43;;;;;;;;;;5067467;28;20032;-64
2021/03/14 14:37:18;;;;;;;0.40;0.40;;;;;;;;;;5066014;28;20573;-64
2021/03/14 14:39:44;;;;;;;0.35;0.35;;;;;;;;;;5066776;28;20063;-64
2021/03/14 14:42:11;;;;;;;1.33;0.63;;;;;;;;;;5066642;28;20036;-64
2021/03/14 14:44:37;;;;;;;0.68;0.68;;;;;;;;;;5066313;28;20025;-64
2021/03/14 14:47:03;;;;;;;0.57;0.40;;;;;;;;;;5067022;28;20071;-64